Time;durP1;ratioP1;P1;durP2;ratioP2;P2;SDS_P1;SDS_P2;PMS_P1;PMS_P2;Temp;Humidity;BMP_temperature;BMP_pressure;BME280_temperature;BME280_humidity;BME280_pressure;Samples;Min_cycle;Max_cycle;Signal;HPM_P1;HPM_P2
2022/09/17 00:00:49;;;;;;;0.10;0.10;;;;;;;1.80;100.00;101557.38;5036214;28;20037;-53
2022/09/17 00:03:15;;;;;;;1.35;0.30;;;;;;;1.88;100.00;101555.03;5035514;28;20478;-52
2022/09/17 00:05:41;;;;;;;2.25;0.50;;;;;;;1.91;100.00;101556.59;5039493;28;20029;-49
2022/09/17 00:08:09;;;;;;;0.57;0.57;;;;;;;1.93;100.00;101560.78;5038742;28;20032;-52
2022/09/17 00:10:40;;;;;;;2.15;0.25;;;;;;;1.86;100.00;101551.72;5037160;28;20040;-54
2022/09/17 00:13:06;;;;;;;0.82;0.10;;;;;;;1.79;100.00;101553.09;5035445;28;20048;-49
2022/09/17 00:15:32;;;;;;;5.97;0.35;;;;;;;1.70;100.00;101551.09;5032704;28;20406;-52
2022/09/17 00:17:57;;;;;;;4.10;0.30;;;;;;;1.62;100.00;101546.41;5035405;28;20033;-53
2022/09/17 00:20:25;;;;;;;0.32;0.20;;;;;;;1.53;100.00;101547.91;5035822;28;20040;-49
2022/09/17 00:22:50;;;;;;;1.27;0.30;;;;;;;1.48;100.00;101557.84;5029426;28;20574;-51
2022/09/17 00:25:16;;;;;;;1.35;0.17;;;;;;;1.44;100.00;101556.34;5037038;28;20167;-54
2022/09/17 00:27:41;;;;;;;0.30;0.17;;;;;;;1.44;100.00;101556.34;5029597;28;20052;-51
2022/09/17 00:30:07;;;;;;;0.43;0.22;;;;;;;1.42;100.00;101565.25;5035976;28;20056;-55
2022/09/17 00:32:33;;;;;;;0.85;0.35;;;;;;;1.38;100.00;101562.03;5038533;28;20037;-56
2022/09/17 00:34:58;;;;;;;2.60;0.73;;;;;;;1.38;100.00;101553.34;5035612;28;20037;-50
2022/09/17 00:37:23;;;;;;;1.65;0.20;;;;;;;1.33;100.00;101556.28;5036427;28;20032;-50
2022/09/17 00:39:49;;;;;;;1.00;0.20;;;;;;;1.31;100.00;101555.53;5032289;28;20034;-49
2022/09/17 00:42:15;;;;;;;1.48;0.30;;;;;;;1.33;100.00;101552.81;5034018;28;20066;-51
2022/09/17 00:44:54;;;;;;;0.60;0.25;;;;;;;1.29;100.00;101552.19;5032439;28;20029;-49
2022/09/17 00:47:22;;;;;;;0.85;0.10;;;;;;;1.29;100.00;101557.41;5035333;28;20123;-51
2022/09/17 00:50:05;;;;;;;1.02;0.20;;;;;;;1.29;100.00;101560.88;5029864;28;20587;-50
2022/09/17 00:52:44;;;;;;;1.45;0.43;;;;;;;1.24;100.00;101554.28;5037388;28;20758;-50
2022/09/17 00:55:20;;;;;;;0.50;0.50;;;;;;;1.19;100.00;101543.28;5035612;28;20033;-51
2022/09/17 00:57:47;;;;;;;0.25;0.17;;;;;;;1.13;100.00;101546.34;5036657;28;20322;-50
2022/09/17 01:00:14;;;;;;;0.22;0.22;;;;;;;1.05;100.00;101536.41;5037051;28;20021;-50
2022/09/17 01:02:41;;;;;;;1.00;0.55;;;;;;;1.03;100.00;101546.97;5035016;28;20033;-52
2022/09/17 01:05:07;;;;;;;2.55;0.30;;;;;;;1.06;100.00;101551.16;5033119;28;20025;-52
2022/09/17 01:07:44;;;;;;;0.73;0.20;;;;;;;1.07;100.00;101555.44;5030991;28;20025;-53
2022/09/17 01:10:37;;;;;;;1.27;0.20;;;;;;;1.07;100.00;101547.59;5028656;28;20040;-54
2022/09/17 01:13:16;;;;;;;1.17;0.50;;;;;;;1.04;100.00;101543.41;5036330;28;20053;-49
2022/09/17 01:15:54;;;;;;;0.20;0.13;;;;;;;1.04;100.00;101548.63;5030046;28;20033;-50
2022/09/17 01:18:38;;;;;;;0.32;0.10;;;;;;;1.07;100.00;101558.88;5033193;28;20044;-50
2022/09/17 01:21:24;;;;;;;0.95;0.20;;;;;;;1.09;100.00;101543.94;5039575;28;20112;-50
2022/09/17 01:24:05;;;;;;;1.02;0.30;;;;;;;1.07;100.00;101537.13;5026243;28;20040;-51
2022/09/17 01:26:58;;;;;;;3.90;0.20;;;;;;;1.00;100.00;101547.16;5029513;28;20030;-52
2022/09/17 01:29:38;;;;;;;2.78;0.43;;;;;;;0.94;100.00;101538.91;5028963;28;20041;-51
2022/09/17 01:32:32;;;;;;;0.50;0.00;;;;;;;0.91;100.00;101541.72;5025490;28;20184;-49
2022/09/17 01:35:09;;;;;;;0.25;0.15;;;;;;;0.84;100.00;101538.69;5026305;28;20483;-53
2022/09/17 01:37:44;;;;;;;2.97;0.20;;;;;;;0.77;100.00;101547.84;5023364;28;20044;-49
2022/09/17 01:40:37;;;;;;;0.30;0.30;;;;;;;0.77;100.00;101550.47;5027925;28;20029;-50
2022/09/17 01:43:28;;;;;;;0.35;0.35;;;;;;;0.77;100.00;101542.63;5032463;28;20075;-52
2022/09/17 01:46:05;;;;;;;1.40;0.25;;;;;;;0.73;100.00;101541.19;5040089;28;20368;-53
2022/09/17 01:48:33;;;;;;;3.10;0.17;;;;;;;0.65;100.00;101544.28;5044100;28;20617;-54
2022/09/17 01:51:09;;;;;;;1.52;0.50;;;;;;;0.65;100.00;101549.50;5039800;28;20037;-51
2022/09/17 01:54:03;;;;;;;2.13;0.85;;;;;;;0.67;100.00;101555.44;5034771;28;20029;-55
2022/09/17 01:57:12;;;;;;;0.10;0.10;;;;;;;0.69;100.00;101553.56;5029446;28;20337;-50
2022/09/17 02:00:05;;;;;;;2.67;0.30;;;;;;;0.63;100.00;101544.38;5030465;28;20099;-49
2022/09/17 02:03:16;;;;;;;0.85;0.22;;;;;;;0.59;100.00;101545.50;5037774;28;20065;-50
2022/09/17 02:05:51;;;;;;;1.08;0.75;;;;;;;0.56;100.00;101558.75;5039167;28;20041;-51
2022/09/17 02:08:20;;;;;;;0.70;0.10;;;;;;;0.51;100.00;101560.81;5038637;28;20028;-51
2022/09/17 02:11:08;;;;;;;3.72;0.10;;;;;;;0.48;100.00;101558.41;5047405;28;20032;-50
2022/09/17 02:13:45;;;;;;;0.77;0.35;;;;;;;0.48;100.00;101563.66;5036311;28;20098;-52
2022/09/17 02:16:22;;;;;;;0.65;0.10;;;;;;;0.50;100.00;101563.56;5038042;28;20387;-52
2022/09/17 02:19:12;;;;;;;0.40;0.15;;;;;;;0.51;100.00;101555.59;5036606;28;20029;-50
2022/09/17 02:21:59;;;;;;;0.45;0.20;;;;;;;0.49;100.00;101556.66;5032528;28;20147;-51
2022/09/17 02:24:51;;;;;;;1.42;0.03;;;;;;;0.46;100.00;101559.47;5038948;28;20080;-50
2022/09/17 02:27:22;;;;;;;;;;;;;;;0.41;100.00;101558.00;5041993;28;20115;-49
2022/09/17 02:29:48;;;;;;;0.30;0.00;;;;;;;0.32;100.00;101555.97;5036182;28;19917;-50
2022/09/17 02:32:13;;;;;;;0.20;0.00;;;;;;;0.27;100.00;101562.41;5048717;28;20123;-49
2022/09/17 02:34:39;;;;;;;0.20;0.20;;;;;;;0.24;100.00;101555.63;5032788;28;20030;-49
2022/09/17 02:37:06;;;;;;;2.42;0.10;;;;;;;0.21;100.00;101559.25;5038116;28;20033;-50
2022/09/17 02:39:31;;;;;;;0.30;0.10;;;;;;;0.21;100.00;101553.22;5045305;28;20470;-52
2022/09/17 02:42:23;;;;;;;0.10;0.10;;;;;;;0.16;100.00;101553.50;5034364;28;20056;-52
2022/09/17 02:45:01;;;;;;;0.00;0.00;;;;;;;0.15;100.00;101564.84;5039317;28;20052;-50
2022/09/17 02:47:29;;;;;;;0.17;0.13;;;;;;;0.14;100.00;101562.38;5038486;28;20128;-51
2022/09/17 02:50:21;;;;;;;0.10;0.10;;;;;;;0.12;100.00;101565.06;5035026;28;20041;-51
2022/09/17 02:53:07;;;;;;;0.20;0.20;;;;;;;0.11;100.00;101557.34;5034644;28;20128;-51
2022/09/17 02:55:41;;;;;;;0.20;0.20;;;;;;;0.12;100.00;101564.22;5030609;28;20478;-50
2022/09/17 02:58:31;;;;;;;0.52;0.13;;;;;;;0.08;100.00;101568.81;5035766;28;20029;-52
2022/09/17 03:01:02;;;;;;;1.35;0.10;;;;;;;0.06;100.00;101562.84;5042092;28;20041;-49
2022/09/17 03:03:38;;;;;;;1.70;0.10;;;;;;;0.06;100.00;101575.06;5049511;28;20044;-53
2022/09/17 03:06:04;;;;;;;3.25;0.10;;;;;;;0.04;100.00;101572.53;5040860;28;20490;-50
2022/09/17 03:08:39;;;;;;;0.17;0.10;;;;;;;0.02;100.00;101569.16;5042881;28;20443;-49
2022/09/17 03:11:07;;;;;;;1.85;0.10;;;;;;;-0.03;100.00;101563.41;5047915;28;20063;-49
2022/09/17 03:13:34;;;;;;;2.45;0.30;;;;;;;-0.06;100.00;101561.00;5036080;28;20049;-49
2022/09/17 03:16:00;;;;;;;0.88;0.13;;;;;;;-0.08;100.00;101568.06;5040056;28;20040;-51
2022/09/17 03:18:25;;;;;;;1.00;0.17;;;;;;;-0.06;100.00;101569.66;5039449;28;20474;-48
2022/09/17 03:20:50;;;;;;;0.55;0.30;;;;;;;-0.07;100.00;101562.78;5047162;28;20215;-52
2022/09/17 03:23:16;;;;;;;0.13;0.10;;;;;;;-0.08;100.00;101568.94;5039547;28;20139;-51
2022/09/17 03:25:41;;;;;;;0.05;0.00;;;;;;;-0.09;100.00;101562.03;5038854;28;20072;-50
2022/09/17 03:28:07;;;;;;;1.10;0.00;;;;;;;-0.14;100.00;101561.47;5039573;28;20577;-50
2022/09/17 03:30:32;;;;;;;0.17;0.00;;;;;;;-0.14;100.00;101560.63;5037418;28;20033;-49
2022/09/17 03:32:57;;;;;;;0.20;0.10;;;;;;;-0.15;100.00;101557.19;5038561;28;20086;-51
2022/09/17 03:35:23;;;;;;;0.40;0.10;;;;;;;-0.19;100.00;101555.72;5036419;28;20078;-51
2022/09/17 03:37:48;;;;;;;0.20;0.20;;;;;;;-0.23;100.00;101556.84;5040180;28;20029;-51
2022/09/17 03:40:14;;;;;;;2.92;0.68;;;;;;;-0.28;100.00;101551.91;5037606;28;20033;-52
2022/09/17 03:42:39;;;;;;;0.10;0.00;;;;;;;-0.32;100.00;101560.00;5038371;28;20510;-52
2022/09/17 03:45:05;;;;;;;0.60;0.60;;;;;;;-0.33;100.00;101563.56;5035655;28;20581;-52
2022/09/17 03:47:30;;;;;;;0.00;0.00;;;;;;;-0.34;100.00;101567.06;5036437;28;20053;-51
2022/09/17 03:49:56;;;;;;;0.28;0.10;;;;;;;-0.37;100.00;101567.25;5038311;28;20459;-52
2022/09/17 03:52:21;;;;;;;0.00;0.00;;;;;;;-0.35;100.00;101568.84;5029905;28;20052;-49
2022/09/17 03:54:47;;;;;;;0.65;0.10;;;;;;;-0.35;100.00;101566.25;5033759;28;20030;-49
2022/09/17 03:57:12;;;;;;;0.70;0.00;;;;;;;-0.34;100.00;101572.28;5035905;28;20028;-49
2022/09/17 03:59:37;;;;;;;1.35;0.63;;;;;;;-0.37;100.00;101572.47;5031152;28;20086;-50
2022/09/17 04:02:03;;;;;;;1.55;0.20;;;;;;;-0.41;100.00;101576.19;5048077;28;20028;-49
2022/09/17 04:04:28;;;;;;;0.10;0.03;;;;;;;-0.41;100.00;101582.25;5034304;28;20033;-49
2022/09/17 04:06:53;;;;;;;4.85;0.00;;;;;;;-0.40;100.00;101577.88;5034456;28;20033;-49
2022/09/17 04:09:19;;;;;;;2.75;0.10;;;;;;;-0.43;100.00;101583.28;5037263;28;20339;-49
2022/09/17 04:11:44;;;;;;;1.85;0.10;;;;;;;-0.47;100.00;101588.66;5043046;28;20383;-54
2022/09/17 04:14:09;;;;;;;3.10;0.20;;;;;;;-0.49;100.00;101594.88;5043802;28;20037;-54
2022/09/17 04:16:35;;;;;;;0.68;0.00;;;;;;;-0.50;100.00;101583.63;5038440;28;20025;-50
2022/09/17 04:19:00;;;;;;;1.45;0.15;;;;;;;-0.51;100.00;101581.13;5039217;28;20025;-49
2022/09/17 04:21:25;;;;;;;0.00;0.00;;;;;;;-0.54;100.00;101587.38;5034360;28;20033;-49
2022/09/17 04:23:51;;;;;;;0.20;0.20;;;;;;;-0.52;100.00;101582.06;5037578;28;20025;-49
2022/09/17 04:26:16;;;;;;;1.63;0.00;;;;;;;-0.55;100.00;101574.44;5039557;28;20057;-51
2022/09/17 04:28:41;;;;;;;0.20;0.10;;;;;;;-0.54;100.00;101581.31;5036268;28;20033;-52
2022/09/17 04:31:07;;;;;;;2.38;0.20;;;;;;;-0.55;100.00;101585.69;5044060;28;20166;-49
2022/09/17 04:33:32;;;;;;;0.10;0.05;;;;;;;-0.56;100.00;101588.41;5035567;28;20040;-49
2022/09/17 04:35:57;;;;;;;0.22;0.10;;;;;;;-0.58;100.00;101579.81;5034601;28;20111;-49
2022/09/17 04:38:23;;;;;;;0.10;0.10;;;;;;;-0.57;100.00;101584.09;5039391;28;20063;-52
2022/09/17 04:40:50;;;;;;;0.95;0.20;;;;;;;-0.58;100.00;101585.03;5040792;28;20076;-49
2022/09/17 04:43:16;;;;;;;2.15;0.22;;;;;;;-0.57;100.00;101581.50;5041693;28;20024;-49
2022/09/17 04:45:44;;;;;;;0.75;0.10;;;;;;;-0.56;100.00;101581.41;5032175;28;20110;-49
2022/09/17 04:48:09;;;;;;;0.10;0.05;;;;;;;-0.58;100.00;101580.66;5035545;28;20486;-51
2022/09/17 04:50:35;;;;;;;0.43;0.43;;;;;;;-0.59;100.00;101572.94;5038194;28;20036;-52
2022/09/17 04:53:00;;;;;;;0.45;0.10;;;;;;;-0.56;100.00;101573.59;5035882;28;20039;-50
2022/09/17 04:55:26;;;;;;;0.30;0.20;;;;;;;-0.56;100.00;101577.97;5035868;28;20076;-51
2022/09/17 04:57:52;;;;;;;0.20;0.20;;;;;;;-0.57;100.00;101566.69;5031968;28;20092;-51
2022/09/17 05:00:19;;;;;;;0.20;0.20;;;;;;;-0.58;100.00;101572.00;5039636;28;20068;-51
2022/09/17 05:02:46;;;;;;;0.38;0.10;;;;;;;-0.59;100.00;101565.13;5033535;28;20425;-52
2022/09/17 05:05:13;;;;;;;2.38;0.10;;;;;;;-0.61;100.00;101567.00;5031372;28;20029;-53
2022/09/17 05:07:39;;;;;;;0.22;0.15;;;;;;;-0.66;100.00;101567.25;5038046;28;20044;-54
2022/09/17 05:10:05;;;;;;;0.20;0.20;;;;;;;-0.64;100.00;101565.41;5040261;28;20032;-48
2022/09/17 05:12:31;;;;;;;1.35;0.15;;;;;;;-0.60;100.00;101558.22;5041529;28;20017;-54
2022/09/17 05:14:56;;;;;;;0.10;0.10;;;;;;;-0.58;100.00;101574.63;5028359;28;20029;-49
2022/09/17 05:17:21;;;;;;;0.73;0.10;;;;;;;-0.61;100.00;101564.38;5031623;28;20503;-49
2022/09/17 05:19:47;;;;;;;0.35;0.10;;;;;;;-0.63;100.00;101567.06;5037254;28;20049;-48
2022/09/17 05:22:12;;;;;;;0.13;0.10;;;;;;;-0.62;100.00;101573.13;5029181;28;20017;-49
2022/09/17 05:24:38;;;;;;;1.38;0.43;;;;;;;-0.59;100.00;101567.75;5032225;28;20068;-49
2022/09/17 05:27:05;;;;;;;0.30;0.30;;;;;;;-0.58;100.00;101569.41;5032264;28;20040;-49
2022/09/17 05:29:31;;;;;;;0.80;0.10;;;;;;;-0.60;100.00;101579.91;5033494;28;20059;-52
2022/09/17 05:31:56;;;;;;;0.75;0.20;;;;;;;-0.62;100.00;101580.94;5048685;28;20021;-50
2022/09/17 05:34:21;;;;;;;0.35;0.28;;;;;;;-0.63;100.00;101571.44;5029065;28;20386;-51
2022/09/17 05:36:48;;;;;;;0.77;0.10;;;;;;;-0.55;100.00;101590.06;5033770;28;20517;-52
2022/09/17 05:39:13;;;;;;;0.63;0.25;;;;;;;-0.46;100.00;101585.13;5042454;28;20025;-51
2022/09/17 05:41:38;;;;;;;0.38;0.20;;;;;;;-0.47;100.00;101585.22;5037587;28;20029;-51
2022/09/17 05:44:04;;;;;;;0.20;0.20;;;;;;;-0.49;100.00;101585.31;5033614;28;20025;-50
2022/09/17 05:46:29;;;;;;;1.63;0.30;;;;;;;-0.43;100.00;101594.53;5029863;28;20052;-51
2022/09/17 05:48:56;;;;;;;2.55;0.28;;;;;;;-0.40;100.00;101594.34;5037944;28;20060;-52
2022/09/17 05:51:21;;;;;;;0.32;0.10;;;;;;;-0.43;100.00;101604.97;5044327;28;20108;-49
2022/09/17 05:53:46;;;;;;;0.85;0.85;;;;;;;-0.40;100.00;101598.72;5032229;28;20214;-50
2022/09/17 05:56:12;;;;;;;0.47;0.10;;;;;;;-0.39;100.00;101608.22;5035114;28;20025;-51
2022/09/17 05:58:37;;;;;;;1.17;0.60;;;;;;;-0.37;100.00;101608.97;5037311;28;20043;-49
2022/09/17 06:01:03;;;;;;;0.68;0.35;;;;;;;-0.36;100.00;101611.50;5034489;28;20462;-50
2022/09/17 06:03:28;;;;;;;3.55;0.13;;;;;;;-0.36;100.00;101606.28;5033079;28;20217;-49
2022/09/17 06:05:57;;;;;;;0.10;0.00;;;;;;;-0.34;100.00;101604.38;5029838;28;20390;-51
2022/09/17 06:08:24;;;;;;;0.45;0.20;;;;;;;-0.30;100.00;101611.09;5032227;28;20021;-50
2022/09/17 06:10:49;;;;;;;2.22;0.17;;;;;;;-0.22;100.00;101608.03;5036557;28;20037;-49
2022/09/17 06:13:18;;;;;;;0.35;0.20;;;;;;;-0.20;100.00;101602.75;5035744;28;20041;-49
2022/09/17 06:15:52;;;;;;;0.20;0.20;;;;;;;-0.20;100.00;101605.34;5035060;28;20044;-52
2022/09/17 06:18:18;;;;;;;0.80;0.25;;;;;;;-0.18;100.00;101608.66;5024128;28;20380;-52
2022/09/17 06:20:58;;;;;;;1.02;0.05;;;;;;;-0.16;100.00;101601.59;5035807;28;20466;-55
2022/09/17 06:23:24;;;;;;;0.10;0.00;;;;;;;-0.14;100.00;101607.56;5047757;28;20036;-50
2022/09/17 06:26:08;;;;;;;0.73;0.20;;;;;;;-0.11;100.00;101605.59;5036332;28;20044;-49
2022/09/17 06:28:34;;;;;;;1.90;0.50;;;;;;;-0.04;100.00;101606.91;5040576;28;20029;-49
2022/09/17 06:31:01;;;;;;;0.68;0.10;;;;;;;0.05;100.00;101607.25;5043003;28;20040;-48
2022/09/17 06:33:27;;;;;;;2.42;0.45;;;;;;;0.04;100.00;101603.81;5033443;28;20026;-49
2022/09/17 06:35:59;;;;;;;0.82;0.25;;;;;;;0.06;100.00;101617.59;5035719;28;20075;-49
2022/09/17 06:38:24;;;;;;;1.48;0.30;;;;;;;0.06;100.00;101611.56;5043354;28;20017;-51
2022/09/17 06:40:51;;;;;;;1.88;0.10;;;;;;;0.08;100.00;101609.66;5040593;28;20083;-49
2022/09/17 06:43:16;;;;;;;1.20;0.20;;;;;;;0.13;100.00;101610.22;5032106;28;20025;-48
2022/09/17 06:45:42;;;;;;;0.30;0.20;;;;;;;0.19;100.00;101610.69;5033626;28;20124;-49
2022/09/17 06:48:07;;;;;;;1.13;0.20;;;;;;;0.32;100.00;101612.53;5042654;28;20035;-50
2022/09/17 06:50:33;;;;;;;0.45;0.10;;;;;;;0.46;100.00;101609.88;5032357;28;20025;-50
2022/09/17 06:52:58;;;;;;;1.38;0.40;;;;;;;0.62;100.00;101610.59;5036719;28;20053;-50
2022/09/17 06:55:23;;;;;;;0.70;0.40;;;;;;;0.74;100.00;101602.88;5030746;28;20034;-54
2022/09/17 06:57:49;;;;;;;0.75;0.22;;;;;;;0.84;100.00;101606.56;5043151;28;20108;-54
2022/09/17 07:00:14;;;;;;;3.65;0.50;;;;;;;1.01;100.00;101606.31;5044647;28;20403;-49
2022/09/17 07:02:40;;;;;;;0.15;0.10;;;;;;;1.08;100.00;101601.50;5042078;28;20536;-52
2022/09/17 07:05:05;;;;;;;2.30;0.30;;;;;;;1.23;100.00;101597.03;5029672;28;20036;-50
2022/09/17 07:07:31;;;;;;;1.88;0.30;;;;;;;1.35;100.00;101600.59;5033695;28;20025;-49
2022/09/17 07:09:56;;;;;;;0.93;0.20;;;;;;;1.46;100.00;101598.91;5029106;28;20389;-54
2022/09/17 07:12:21;;;;;;;0.28;0.28;;;;;;;1.49;100.00;101605.72;5039709;28;20170;-51
2022/09/17 07:14:47;;;;;;;2.92;0.30;;;;;;;1.63;100.00;101608.22;5047894;28;20044;-49
2022/09/17 07:17:13;;;;;;;1.35;1.10;;;;;;;1.78;100.00;101606.31;5041909;28;20022;-49
2022/09/17 07:19:38;;;;;;;0.85;0.30;;;;;;;1.91;100.00;101603.69;5038560;28;20447;-49
2022/09/17 07:22:04;;;;;;;2.40;0.28;;;;;;;1.93;100.00;101604.41;5038383;28;20060;-54
2022/09/17 07:24:29;;;;;;;0.50;0.40;;;;;;;2.18;100.00;101608.78;5038298;28;20039;-49
2022/09/17 07:26:55;;;;;;;0.25;0.10;;;;;;;2.29;100.00;101598.34;5039561;28;20033;-54
2022/09/17 07:29:22;;;;;;;2.53;1.33;;;;;;;2.44;100.00;101600.84;5037479;28;20548;-49
2022/09/17 07:31:47;;;;;;;0.85;0.28;;;;;;;2.78;100.00;101607.06;5045129;28;20363;-52
2022/09/17 07:34:13;;;;;;;1.40;1.30;;;;;;;3.05;100.00;101602.41;5035861;28;20032;-49
2022/09/17 07:36:38;;;;;;;1.25;0.32;;;;;;;3.44;100.00;101607.38;5035224;28;20144;-49
2022/09/17 07:39:03;;;;;;;2.95;0.40;;;;;;;3.77;100.00;101593.47;5025894;28;20021;-50
2022/09/17 07:41:29;;;;;;;0.73;0.38;;;;;;;4.11;100.00;101593.44;5032263;28;20025;-50
2022/09/17 07:43:54;;;;;;;0.85;0.40;;;;;;;4.38;100.00;101585.13;5038304;28;20056;-50
2022/09/17 07:46:20;;;;;;;1.05;0.52;;;;;;;4.74;100.00;101591.81;5042010;28;21137;-52
2022/09/17 07:48:47;;;;;;;1.02;0.30;;;;;;;4.95;100.00;101588.38;5035847;28;20029;-51
2022/09/17 07:51:16;;;;;;;0.98;0.43;;;;;;;5.27;100.00;101577.81;5035860;28;20429;-48
2022/09/17 07:53:42;;;;;;;2.42;0.77;;;;;;;5.48;100.00;101580.41;5037069;28;20041;-52
2022/09/17 07:56:07;;;;;;;3.67;0.47;;;;;;;5.76;100.00;101583.31;5043446;28;20466;-50
2022/09/17 07:58:35;;;;;;;1.75;1.08;;;;;;;6.11;100.00;101585.50;5040917;28;20024;-51
2022/09/17 08:01:07;;;;;;;4.40;0.80;;;;;;;6.36;100.00;101586.81;5043023;28;20036;-49
2022/09/17 08:03:34;;;;;;;1.90;0.70;;;;;;;6.53;100.00;101587.94;5037444;28;20033;-52
2022/09/17 08:06:04;;;;;;;1.83;0.47;;;;;;;6.71;100.00;101583.66;5045552;28;20482;-50
2022/09/17 08:08:32;;;;;;;1.13;0.35;;;;;;;6.95;100.00;101585.88;5040073;28;20029;-48
2022/09/17 08:11:02;;;;;;;1.00;0.20;;;;;;;7.19;100.00;101579.31;5045554;28;20036;-52
2022/09/17 08:13:28;;;;;;;0.30;0.10;;;;;;;7.34;100.00;101579.69;5031813;28;20379;-48
2022/09/17 08:15:58;;;;;;;0.85;0.30;;;;;;;7.60;100.00;101588.63;5039063;28;20040;-48
2022/09/17 08:18:23;;;;;;;4.80;0.50;;;;;;;7.76;100.00;101588.00;5041906;28;20044;-48
2022/09/17 08:20:49;;;;;;;0.70;0.00;;;;;;;8.00;100.00;101586.66;5038511;28;20112;-49
2022/09/17 08:23:14;;;;;;;2.60;0.15;;;;;;;8.25;100.00;101591.22;5039461;28;20028;-48
2022/09/17 08:25:39;;;;;;;2.70;0.05;;;;;;;8.62;100.00;101587.69;5040581;28;20045;-47
2022/09/17 08:28:05;;;;;;;2.75;0.10;;;;;;;9.02;100.00;101574.97;5034961;28;20462;-46
2022/09/17 08:30:31;;;;;;;5.03;0.00;;;;;;;9.23;100.00;101571.97;5036537;28;20406;-47
2022/09/17 08:32:56;;;;;;;3.22;0.22;;;;;;;9.26;100.00;101564.53;5037591;28;20037;-47
2022/09/17 08:35:23;;;;;;;1.50;0.10;;;;;;;9.39;100.00;101558.81;5046182;28;20025;-49
2022/09/17 08:37:48;;;;;;;5.20;0.77;;;;;;;9.52;100.00;101558.38;5037815;28;20470;-48
2022/09/17 08:40:21;;;;;;;3.67;0.10;;;;;;;9.65;100.00;101561.44;5043238;28;20029;-52
2022/09/17 08:43:01;;;;;;;2.28;0.17;;;;;;;9.80;100.00;101565.13;5037093;28;20063;-48
2022/09/17 08:45:27;;;;;;;0.95;0.32;;;;;;;9.87;100.00;101569.81;5039597;28;20043;-50
2022/09/17 08:48:01;;;;;;;0.30;0.00;;;;;;;10.05;100.00;101573.19;5040536;28;20528;-52
2022/09/17 08:50:38;;;;;;;1.05;0.30;;;;;;;10.21;100.00;101578.53;5031959;28;20379;-52
2022/09/17 08:53:20;;;;;;;3.22;0.40;;;;;;;10.32;100.00;101577.41;5033515;28;20021;-50
2022/09/17 08:55:54;;;;;;;1.08;0.00;;;;;;;10.43;100.00;101577.13;5026672;28;20115;-51
2022/09/17 08:58:34;;;;;;;0.85;0.20;;;;;;;10.49;100.00;101575.63;5025283;28;20466;-51
2022/09/17 09:01:37;;;;;;;0.30;0.30;;;;;;;10.56;100.00;101581.09;5030228;28;20041;-51
2022/09/17 09:04:33;;;;;;;1.25;0.10;;;;;;;10.55;100.00;101574.97;5040517;28;20040;-51
2022/09/17 09:07:05;;;;;;;2.83;0.10;;;;;;;10.59;100.00;101581.63;5040542;28;20468;-50
2022/09/17 09:09:36;;;;;;;1.20;0.05;;;;;;;10.70;100.00;101583.13;5041485;28;20416;-50
2022/09/17 09:12:15;;;;;;;0.40;0.28;;;;;;;10.83;100.00;101574.66;5041048;28;20025;-51
2022/09/17 09:14:54;;;;;;;1.80;0.10;;;;;;;10.97;100.00;101570.50;5045499;28;20053;-50
2022/09/17 09:17:25;;;;;;;0.00;0.00;;;;;;;10.98;100.00;101567.69;5042520;28;20026;-45
2022/09/17 09:19:53;;;;;;;1.75;0.10;;;;;;;10.91;100.00;101564.88;5039424;28;20095;-47
2022/09/17 09:22:40;;;;;;;0.32;0.00;;;;;;;10.99;100.00;101564.03;5038156;28;20111;-48
2022/09/17 09:25:19;;;;;;;0.57;0.20;;;;;;;11.07;100.00;101566.69;5035528;28;20104;-47
2022/09/17 09:27:59;;;;;;;1.55;0.00;;;;;;;11.19;100.00;101575.13;5039867;28;20056;-50
2022/09/17 09:30:36;;;;;;;7.43;0.32;;;;;;;11.41;100.00;101565.66;5043481;28;20029;-49
2022/09/17 09:33:14;;;;;;;1.45;0.10;;;;;;;11.51;100.00;101565.44;5039365;28;20077;-47
2022/09/17 09:35:43;;;;;;;1.63;0.13;;;;;;;11.65;100.00;101566.56;5039923;28;20029;-49
2022/09/17 09:38:28;;;;;;;0.77;0.30;;;;;;;11.74;100.00;101558.38;5036020;28;20033;-50
2022/09/17 09:41:22;;;;;;;2.33;0.10;;;;;;;11.87;100.00;101549.88;5042633;28;20361;-48
2022/09/17 09:44:04;;;;;;;1.00;0.20;;;;;;;12.02;100.00;101562.44;5040949;28;20048;-49
2022/09/17 09:46:35;;;;;;;1.65;0.70;;;;;;;12.14;100.00;101545.94;5050585;28;20394;-47
2022/09/17 09:49:19;;;;;;;0.10;0.00;;;;;;;12.18;100.00;101546.41;5034888;28;20052;-61
2022/09/17 09:52:16;;;;;;;0.13;0.05;;;;;;;12.14;100.00;101545.13;5033962;28;20018;-48
2022/09/17 09:55:00;;;;;;;1.80;0.00;;;;;;;12.29;100.00;101546.03;5039665;28;20389;-50
2022/09/17 09:57:47;;;;;;;0.85;0.13;;;;;;;12.44;100.00;101546.91;5034942;28;20498;-52
2022/09/17 10:00:29;;;;;;;2.90;0.13;;;;;;;12.47;100.00;101547.53;5038960;28;20452;-54
2022/09/17 10:03:27;;;;;;;1.73;0.10;;;;;;;12.71;100.00;101557.19;5034445;28;20029;-46
2022/09/17 10:05:57;;;;;;;0.43;0.00;;;;;;;12.75;100.00;101546.00;5031366;28;20049;-48
2022/09/17 10:08:23;;;;;;;2.97;0.00;;;;;;;12.90;100.00;101547.88;5019639;28;20041;-45
2022/09/17 10:10:56;;;;;;;0.60;0.00;;;;;;;12.77;100.00;101545.81;5034069;28;20022;-50
2022/09/17 10:13:22;;;;;;;1.35;0.00;;;;;;;12.85;100.00;101543.91;5038569;28;20136;-48
2022/09/17 10:15:48;;;;;;;1.02;0.00;;;;;;;12.92;100.00;101537.88;5037806;28;20029;-47
2022/09/17 10:18:18;;;;;;;1.83;0.08;;;;;;;13.04;100.00;101531.09;5040102;28;20032;-45
2022/09/17 10:20:54;;;;;;;4.25;0.38;;;;;;;13.20;100.00;101530.94;5039660;28;20508;-53
2022/09/17 10:23:25;;;;;;;0.57;0.00;;;;;;;13.29;100.00;101534.34;5042427;28;20130;-51
2022/09/17 10:25:51;;;;;;;2.47;0.05;;;;;;;13.45;100.00;101536.84;5034985;28;20040;-52
2022/09/17 10:28:50;;;;;;;3.72;0.00;;;;;;;13.41;100.00;101529.41;5036200;28;20029;-52
2022/09/17 10:31:16;;;;;;;0.45;0.00;;;;;;;13.39;100.00;101526.91;5044858;28;20139;-50
2022/09/17 10:34:00;;;;;;;6.88;0.75;;;;;;;13.53;100.00;101533.28;5036445;28;20108;-52
2022/09/17 10:36:43;;;;;;;0.65;0.00;;;;;;;13.46;100.00;101524.34;5038651;28;20479;-45
2022/09/17 10:39:28;;;;;;;0.55;0.00;;;;;;;13.46;100.00;101533.16;5037721;28;20584;-47
2022/09/17 10:41:54;;;;;;;0.17;0.15;;;;;;;13.49;100.00;101523.97;5034283;28;20490;-52
2022/09/17 10:44:22;;;;;;;1.35;0.03;;;;;;;13.70;100.00;101513.38;5037834;28;20148;-52
2022/09/17 10:46:49;;;;;;;0.75;0.00;;;;;;;13.71;100.00;101520.38;5045118;28;20029;-50
2022/09/17 10:49:44;;;;;;;1.13;0.00;;;;;;;13.84;100.00;101502.91;5033362;28;20033;-48
2022/09/17 10:52:33;;;;;;;0.00;0.00;;;;;;;13.85;100.00;101512.53;5040953;28;20049;-49
2022/09/17 10:55:13;;;;;;;0.10;0.10;;;;;;;13.80;100.00;101504.28;5042124;28;20135;-50
2022/09/17 10:57:57;;;;;;;0.25;0.00;;;;;;;13.83;100.00;101496.72;5031053;28;20037;-52
2022/09/17 11:00:23;;;;;;;0.20;0.00;;;;;;;13.94;100.00;101503.44;5035978;28;20048;-53
2022/09/17 11:03:26;;;;;;;0.10;0.00;;;;;;;14.05;100.00;101496.78;5039642;28;20025;-49
2022/09/17 11:06:19;;;;;;;0.30;0.00;;;;;;;14.19;100.00;101499.38;5040277;28;20037;-49
2022/09/17 11:09:25;;;;;;;0.65;0.10;;;;;;;14.18;100.00;101507.56;5036038;28;20029;-53
2022/09/17 11:12:09;;;;;;;0.55;0.03;;;;;;;14.28;100.00;101502.75;5040893;28;20039;-51
2022/09/17 11:14:36;;;;;;;0.85;0.55;;;;;;;14.23;100.00;101509.69;5035103;28;20049;-50
2022/09/17 11:17:41;;;;;;;0.65;0.00;;;;;;;14.25;100.00;101491.63;5045567;28;20115;-50
2022/09/17 11:20:21;;;;;;;2.47;0.00;;;;;;;14.27;100.00;101490.41;5037108;28;20045;-48
2022/09/17 11:23:24;;;;;;;0.55;0.00;;;;;;;14.52;100.00;101490.03;5033492;28;20037;-50
2022/09/17 11:25:52;;;;;;;1.00;0.47;;;;;;;14.86;100.00;101486.63;5041489;28;20448;-45
2022/09/17 11:28:25;;;;;;;1.65;0.00;;;;;;;14.62;100.00;101482.56;5017237;28;20022;-50
2022/09/17 11:31:06;;;;;;;0.30;0.00;;;;;;;14.55;100.00;101485.16;5031571;28;21179;-51
2022/09/17 11:33:53;;;;;;;0.35;0.10;;;;;;;14.60;100.00;101477.41;5038187;28;20056;-52
2022/09/17 11:36:30;;;;;;;0.00;0.00;;;;;;;14.91;100.00;101475.38;5033904;28;20413;-52
2022/09/17 11:39:06;;;;;;;0.17;0.17;;;;;;;15.23;100.00;101460.53;5034267;28;20041;-49
2022/09/17 11:41:39;;;;;;;0.63;0.00;;;;;;;15.38;100.00;101457.75;5045043;28;20028;-52
2022/09/17 11:44:07;;;;;;;0.93;0.10;;;;;;;15.47;100.00;101457.38;5040774;28;20490;-51